Time;durP1;ratioP1;P1;durP2;ratioP2;P2;SDS_P1;SDS_P2;PMS_P1;PMS_P2;Temp;Humidity;BMP_temperature;BMP_pressure;BME280_temperature;BME280_humidity;BME280_pressure;Samples;Min_cycle;Max_cycle;Signal;HPM_P1;HPM_P2
2022/09/01 00:02:14;;;;;;;10.93;9.60;;;22.00;62.30;;;;;;5074142;28;20528;-49
2022/09/01 00:04:43;;;;;;;14.30;9.60;;;21.80;63.10;;;;;;5070558;28;20444;-47
2022/09/01 00:07:11;;;;;;;9.63;8.83;;;21.80;64.20;;;;;;5069121;28;20446;-50
2022/09/01 00:09:37;;;;;;;12.03;9.50;;;21.70;64.20;;;;;;5070311;28;20473;-47
2022/09/01 00:12:04;;;;;;;10.17;9.03;;;21.60;64.40;;;;;;5071133;28;20492;-49
2022/09/01 00:14:34;;;;;;;10.47;9.57;;;21.20;66.10;;;;;;5070783;28;20606;-51
2022/09/01 00:17:03;;;;;;;9.30;8.40;;;21.20;66.70;;;;;;5071113;28;20509;-49
2022/09/01 00:19:29;;;;;;;11.07;10.07;;;21.30;66.30;;;;;;5071480;28;20788;-50
2022/09/01 00:21:55;;;;;;;11.03;10.03;;;21.30;66.70;;;;;;5067531;28;20537;-46
2022/09/01 00:24:21;;;;;;;13.87;9.73;;;21.40;65.80;;;;;;5069896;28;20445;-48
2022/09/01 00:26:47;;;;;;;11.90;10.37;;;21.60;64.80;;;;;;5070725;28;20446;-49
2022/09/01 00:29:14;;;;;;;10.63;9.50;;;21.70;65.20;;;;;;5070897;28;21304;-48
2022/09/01 00:31:40;;;;;;;10.90;9.37;;;21.70;64.50;;;;;;5069713;28;20192;-49
2022/09/01 00:34:06;;;;;;;11.30;10.30;;;21.70;64.50;;;;;;5071667;28;20492;-47
2022/09/01 00:36:32;;;;;;;11.23;10.03;;;21.70;64.80;;;;;;5069797;28;20442;-48
2022/09/01 00:38:58;;;;;;;10.57;9.67;;;21.70;64.60;;;;;;5070937;28;20446;-50
2022/09/01 00:41:26;;;;;;;10.63;9.70;;;21.40;64.80;;;;;;5185651;22;20277;-50
2022/09/01 00:43:58;;;;;;;10.23;9.23;;;21.20;65.90;;;;;;5004373;28;20301;-47
2022/09/01 00:46:45;;;;;;;11.13;8.87;;;21.30;66.60;;;;;;5008856;28;20805;-49
2022/09/01 00:49:13;;;;;;;10.43;9.33;;;21.20;66.50;;;;;;5008922;28;20800;-50
2022/09/01 00:51:43;;;;;;;12.50;9.53;;;21.20;66.60;;;;;;5009019;28;20451;-48
2022/09/01 00:54:14;;;;;;;10.90;10.00;;;21.40;65.70;;;;;;5009722;28;20452;-48
2022/09/01 00:56:42;;;;;;;9.00;8.30;;;21.50;65.20;;;;;;5004820;28;20444;-50
2022/09/01 00:59:10;;;;;;;9.83;9.00;;;21.30;65.10;;;;;;5010373;28;20449;-45
2022/09/01 01:01:36;;;;;;;10.83;9.83;;;21.30;65.90;;;;;;5002799;28;20449;-47
2022/09/01 01:04:04;;;;;;;9.60;8.80;;;21.40;65.50;;;;;;5003727;28;20540;-49
2022/09/01 01:06:31;;;;;;;11.20;9.37;;;21.40;65.50;;;;;;5009714;28;20209;-47
2022/09/01 01:08:59;;;;;;;10.70;9.70;;;21.30;65.20;;;;;;5009305;28;20806;-50
2022/09/01 01:11:30;;;;;;;10.07;9.13;;;21.20;65.60;;;;;;5007149;28;20444;-50
2022/09/01 01:13:59;;;;;;;9.70;8.90;;;21.20;66.50;;;;;;5008734;28;20457;-49
2022/09/01 01:16:28;;;;;;;10.70;9.80;;;21.30;65.90;;;;;;5009847;28;20844;-50
2022/09/01 01:18:54;;;;;;;9.17;8.37;;;21.60;64.80;;;;;;4996804;28;20445;-51
2022/09/01 01:24:26;;;;;;;10.17;9.17;;;21.80;63.60;;;;;;5004634;28;20824;-51
2022/09/01 01:26:58;;;;;;;10.43;9.43;;;21.60;63.10;;;;;;5008056;28;21147;-49
2022/09/01 01:29:28;;;;;;;10.50;9.03;;;21.80;63.40;;;;;;5006369;28;20441;-50
2022/09/01 01:31:54;;;;;;;10.37;9.47;;;21.90;62.90;;;;;;5004683;28;20455;-50
2022/09/01 01:34:21;;;;;;;10.40;9.40;;;22.00;62.70;;;;;;5004246;28;20979;-50
2022/09/01 01:36:47;;;;;;;11.07;9.70;;;22.00;61.80;;;;;;5001027;28;20462;-50
2022/09/01 01:39:20;;;;;;;10.00;8.93;;;22.00;61.70;;;;;;5000981;28;20878;-48
2022/09/01 01:41:47;;;;;;;9.73;8.77;;;21.90;62.60;;;;;;5008636;28;20473;-51
2022/09/01 01:44:16;;;;;;;9.27;8.37;;;21.90;62.60;;;;;;5000582;28;20572;-48
2022/09/01 01:46:49;;;;;;;11.53;10.17;;;22.00;62.20;;;;;;5005377;28;20450;-49
2022/09/01 01:49:19;;;;;;;10.30;9.30;;;22.00;61.90;;;;;;5008426;28;20535;-49
2022/09/01 01:51:51;;;;;;;11.80;10.60;;;21.90;62.00;;;;;;5000030;28;20446;-47
2022/09/01 01:54:17;;;;;;;10.10;9.10;;;21.90;62.00;;;;;;5004350;28;20982;-47
2022/09/01 01:56:43;;;;;;;10.03;9.13;;;21.80;62.20;;;;;;5008670;28;20448;-46
2022/09/01 01:59:14;;;;;;;9.70;8.80;;;21.50;63.20;;;;;;5008076;28;20202;-46
2022/09/01 02:01:41;;;;;;;10.00;9.00;;;21.40;63.90;;;;;;5004239;28;20982;-50
2022/09/01 02:04:09;;;;;;;10.10;9.20;;;21.30;64.10;;;;;;5002253;28;20829;-49
2022/09/01 02:06:40;;;;;;;9.93;9.07;;;21.40;64.20;;;;;;5003553;28;20453;-48
2022/09/01 02:09:06;;;;;;;9.47;8.67;;;21.40;63.90;;;;;;5027028;28;20931;-51
2022/09/01 02:11:36;;;;;;;9.63;8.67;;;21.40;64.10;;;;;;5002899;28;20445;-49
2022/09/01 02:14:03;;;;;;;9.80;8.80;;;21.40;63.90;;;;;;4999323;28;20484;-48
2022/09/01 02:16:31;;;;;;;8.77;8.00;;;21.40;63.90;;;;;;5005995;28;20573;-47
2022/09/01 02:18:58;;;;;;;10.57;8.97;;;21.30;64.30;;;;;;5004046;28;20453;-46
2022/09/01 02:21:25;;;;;;;9.50;8.60;;;21.30;63.80;;;;;;5008184;28;20465;-49
2022/09/01 02:23:59;;;;;;;9.83;8.83;;;21.40;63.90;;;;;;5010163;28;20535;-48
2022/09/01 02:26:37;;;;;;;12.10;9.73;;;21.50;63.40;;;;;;4995813;28;20453;-49
2022/09/01 02:29:16;;;;;;;9.97;8.97;;;21.40;63.40;;;;;;5003722;28;20527;-50
2022/09/01 02:31:43;;;;;;;11.30;10.27;;;21.40;63.40;;;;;;5005296;28;20444;-48
2022/09/01 02:34:11;;;;;;;10.80;9.80;;;21.20;63.70;;;;;;5009445;28;20499;-52
2022/09/01 02:36:43;;;;;;;11.57;10.30;;;21.10;63.50;;;;;;5006325;28;20967;-49
2022/09/01 02:39:09;;;;;;;9.60;8.60;;;21.00;64.00;;;;;;5004798;28;20450;-48
2022/09/01 02:41:35;;;;;;;10.27;9.27;;;21.00;64.90;;;;;;5004680;28;20504;-46
2022/09/01 02:44:10;;;;;;;9.77;8.97;;;21.10;65.10;;;;;;5008609;28;20445;-46
2022/09/01 02:46:43;;;;;;;11.47;10.47;;;21.20;63.80;;;;;;4995013;28;20216;-47
2022/09/01 02:49:14;;;;;;;11.57;10.30;;;21.30;63.30;;;;;;5011724;28;20465;-48
2022/09/01 02:51:44;;;;;;;11.13;10.13;;;21.40;63.10;;;;;;5010513;28;20445;-46
2022/09/01 02:54:15;;;;;;;12.00;10.80;;;21.60;62.70;;;;;;5009938;28;20923;-46
2022/09/01 02:56:41;;;;;;;12.00;11.03;;;21.60;62.00;;;;;;5002907;28;20441;-47
2022/09/01 02:59:11;;;;;;;11.33;10.40;;;21.70;61.60;;;;;;5005643;28;20526;-47
2022/09/01 03:01:38;;;;;;;11.30;10.30;;;21.70;61.00;;;;;;5010361;28;20198;-46
2022/09/01 03:04:07;;;;;;;11.03;10.00;;;21.60;60.80;;;;;;5013466;28;20453;-47
2022/09/01 03:06:35;;;;;;;12.07;10.87;;;21.60;60.70;;;;;;5009368;28;20475;-47
2022/09/01 03:09:02;;;;;;;11.37;10.27;;;21.60;60.60;;;;;;5024081;28;20998;-46
2022/09/01 03:11:30;;;;;;;11.83;10.73;;;21.50;60.80;;;;;;5007401;28;20508;-48
2022/09/01 03:13:56;;;;;;;11.33;10.40;;;21.40;60.90;;;;;;4998018;28;21026;-47
2022/09/01 03:16:22;;;;;;;11.80;10.80;;;21.30;61.10;;;;;;5007537;28;20850;-47
2022/09/01 03:18:49;;;;;;;11.20;10.30;;;21.30;61.20;;;;;;5012881;28;20444;-46
2022/09/01 03:21:15;;;;;;;12.07;10.97;;;21.30;61.40;;;;;;5009344;28;20204;-49
2022/09/01 03:23:43;;;;;;;12.13;11.13;;;21.20;61.40;;;;;;5011843;28;20468;-46
2022/09/01 03:26:08;;;;;;;11.80;10.70;;;21.20;61.60;;;;;;5004113;28;20443;-47
2022/09/01 03:28:36;;;;;;;12.33;11.30;;;21.10;61.70;;;;;;5009008;28;20437;-47
2022/09/01 03:31:03;;;;;;;14.53;11.13;;;21.10;61.80;;;;;;5008636;28;20209;-50
2022/09/01 03:33:29;;;;;;;12.60;11.30;;;21.00;61.80;;;;;;5011928;28;20441;-47
2022/09/01 03:35:55;;;;;;;12.40;11.30;;;21.00;62.10;;;;;;5017516;28;20484;-47
2022/09/01 03:38:24;;;;;;;12.53;11.20;;;21.00;62.00;;;;;;5007413;28;20481;-46
2022/09/01 03:40:52;;;;;;;11.43;10.43;;;21.00;62.40;;;;;;5012652;28;20527;-48
2022/09/01 03:43:22;;;;;;;11.67;10.50;;;21.00;62.80;;;;;;5008008;28;20467;-45
2022/09/01 03:45:48;;;;;;;10.67;9.57;;;21.00;62.80;;;;;;5012399;28;20456;-48
2022/09/01 03:48:15;;;;;;;12.40;9.93;;;21.00;62.70;;;;;;5020814;28;20441;-46
2022/09/01 03:50:46;;;;;;;11.23;10.10;;;21.00;62.30;;;;;;5018800;28;20198;-51
2022/09/01 03:53:18;;;;;;;11.20;10.17;;;21.10;62.30;;;;;;5007426;28;20932;-46
2022/09/01 03:55:46;;;;;;;11.00;10.00;;;21.10;62.20;;;;;;5007357;28;20480;-47
2022/09/01 03:58:17;;;;;;;10.87;9.90;;;21.10;61.60;;;;;;4997413;28;20445;-46
2022/09/01 04:00:46;;;;;;;10.67;9.67;;;21.10;62.00;;;;;;5010405;28;21104;-46
2022/09/01 04:03:13;;;;;;;11.23;10.17;;;21.10;62.50;;;;;;5009403;28;21006;-46
2022/09/01 04:05:43;;;;;;;11.20;10.20;;;21.10;61.90;;;;;;5011205;28;20499;-46
2022/09/01 04:08:11;;;;;;;10.47;9.47;;;21.10;61.90;;;;;;5009461;28;20456;-45
2022/09/01 04:10:48;;;;;;;11.50;10.43;;;21.10;62.20;;;;;;5012300;28;20859;-45
2022/09/01 04:13:15;;;;;;;12.23;11.00;;;21.20;62.20;;;;;;5012215;28;20448;-45
2022/09/01 04:15:40;;;;;;;10.40;9.40;;;21.20;61.70;;;;;;5013934;28;20489;-49
2022/09/01 04:18:11;;;;;;;13.13;11.93;;;21.20;61.40;;;;;;5008382;28;20914;-46
2022/09/01 04:20:49;;;;;;;11.87;10.77;;;21.20;61.00;;;;;;5011536;28;20189;-45
2022/09/01 04:23:25;;;;;;;11.03;10.03;;;21.20;60.80;;;;;;4997566;28;20872;-45
2022/09/01 04:25:54;;;;;;;13.23;10.00;;;21.20;61.80;;;;;;5006260;28;20456;-48
2022/09/01 04:28:23;;;;;;;12.43;11.27;;;21.20;61.30;;;;;;5009258;28;20452;-49
2022/09/01 04:30:57;;;;;;;11.97;10.97;;;21.20;61.30;;;;;;5007245;28;20455;-45
2022/09/01 04:33:36;;;;;;;11.23;10.13;;;21.20;61.20;;;;;;5004826;28;20469;-46
2022/09/01 04:36:05;;;;;;;11.63;10.43;;;21.30;61.10;;;;;;5009898;28;20936;-45
2022/09/01 04:38:33;;;;;;;12.83;11.53;;;21.30;60.60;;;;;;5010613;28;20441;-45
2022/09/01 04:41:03;;;;;;;13.27;12.10;;;21.30;60.30;;;;;;5007770;28;20951;-46
2022/09/01 04:43:28;;;;;;;12.37;11.27;;;21.20;60.10;;;;;;5008633;28;20468;-45
2022/09/01 04:45:55;;;;;;;14.60;12.60;;;21.20;60.10;;;;;;5007083;28;20441;-46
2022/09/01 04:48:21;;;;;;;13.53;12.33;;;21.10;60.50;;;;;;5010843;28;20202;-45
2022/09/01 04:50:48;;;;;;;14.70;13.37;;;21.10;60.50;;;;;;5011920;28;20860;-45
2022/09/01 04:53:14;;;;;;;13.30;12.10;;;21.00;60.40;;;;;;5008806;28;20452;-49
2022/09/01 04:55:43;;;;;;;14.43;13.03;;;20.90;60.60;;;;;;5009250;28;21009;-48
2022/09/01 04:58:16;;;;;;;14.30;12.97;;;20.90;60.90;;;;;;5009699;28;20453;-48
2022/09/01 05:00:43;;;;;;;13.10;11.87;;;20.90;61.00;;;;;;5003885;28;21200;-46
2022/09/01 05:03:10;;;;;;;13.87;12.63;;;20.90;61.50;;;;;;5006009;28;20999;-45
2022/09/01 05:05:44;;;;;;;13.50;11.57;;;20.90;62.20;;;;;;5011341;28;20438;-45
2022/09/01 05:08:16;;;;;;;12.57;11.37;;;21.00;62.10;;;;;;5001811;28;20436;-46
2022/09/01 05:10:45;;;;;;;12.43;11.33;;;21.10;61.90;;;;;;5010287;28;20599;-47
2022/09/01 05:13:13;;;;;;;10.43;9.53;;;21.20;61.10;;;;;;5006465;28;20468;-48
2022/09/01 05:15:45;;;;;;;12.10;10.90;;;21.20;60.70;;;;;;5008902;28;20627;-47
2022/09/01 05:18:14;;;;;;;10.40;8.30;;;21.30;60.60;;;;;;5010390;28;20499;-47
2022/09/01 05:20:41;;;;;;;9.20;8.23;;;21.10;63.80;;;;;;5007483;28;20433;-47
2022/09/01 05:23:12;;;;;;;10.87;9.77;;;21.30;62.30;;;;;;5006597;28;20582;-44
2022/09/01 05:25:42;;;;;;;9.17;7.80;;;21.50;61.00;;;;;;5007946;28;20445;-45
2022/09/01 05:28:11;;;;;;;9.50;8.60;;;21.70;59.90;;;;;;5001563;28;20461;-44
2022/09/01 05:30:38;;;;;;;10.40;9.50;;;21.90;59.40;;;;;;5001446;28;20451;-45
2022/09/01 05:33:09;;;;;;;10.17;9.27;;;22.00;59.10;;;;;;5003468;28;20579;-44
2022/09/01 05:35:36;;;;;;;10.83;9.83;;;22.00;58.80;;;;;;5003863;28;20488;-44
2022/09/01 05:38:02;;;;;;;11.03;9.90;;;22.10;58.50;;;;;;5003615;28;20503;-45
2022/09/01 05:40:28;;;;;;;9.43;8.63;;;22.20;58.30;;;;;;5005998;28;20597;-45
2022/09/01 05:42:54;;;;;;;10.07;8.97;;;22.20;58.30;;;;;;5006295;28;20972;-45
2022/09/01 05:45:22;;;;;;;9.93;8.93;;;22.30;58.10;;;;;;5005871;28;20193;-45
2022/09/01 05:47:48;;;;;;;9.97;8.97;;;22.40;58.10;;;;;;5002002;28;20515;-45
2022/09/01 05:50:15;;;;;;;8.80;8.00;;;22.40;57.90;;;;;;5005886;28;20456;-46
2022/09/01 05:52:46;;;;;;;9.23;8.43;;;22.50;57.90;;;;;;5004558;28;20448;-46
2022/09/01 05:55:14;;;;;;;11.00;9.00;;;22.50;57.70;;;;;;5010999;28;20563;-46
2022/09/01 05:57:40;;;;;;;9.70;8.80;;;22.60;57.80;;;;;;5004755;28;20460;-46
2022/09/01 06:00:12;;;;;;;11.00;9.90;;;22.60;57.70;;;;;;5003705;28;20811;-45
2022/09/01 06:02:38;;;;;;;14.47;11.37;;;22.70;57.70;;;;;;4999858;28;20471;-45
2022/09/01 06:05:05;;;;;;;11.90;10.00;;;22.70;57.70;;;;;;5002115;28;20443;-49
2022/09/01 06:07:30;;;;;;;11.97;10.87;;;22.70;57.90;;;;;;5010504;28;20928;-47
2022/09/01 06:09:56;;;;;;;11.33;10.17;;;22.80;57.80;;;;;;5008946;28;20441;-47
2022/09/01 06:12:22;;;;;;;12.83;11.53;;;22.80;57.80;;;;;;5001219;28;20204;-47
2022/09/01 06:14:51;;;;;;;11.93;10.30;;;22.70;58.20;;;;;;4998435;28;20252;-46
2022/09/01 06:17:23;;;;;;;12.97;11.77;;;22.80;58.70;;;;;;5002415;28;20452;-48
2022/09/01 06:19:51;;;;;;;13.37;11.97;;;22.80;58.90;;;;;;5008192;28;20453;-46
2022/09/01 06:22:19;;;;;;;13.90;12.50;;;22.90;59.00;;;;;;5005926;28;20437;-45
2022/09/01 06:24:46;;;;;;;12.50;11.20;;;22.90;58.90;;;;;;5007611;28;20494;-45
2022/09/01 06:27:13;;;;;;;9.77;8.60;;;23.00;58.90;;;;;;5006272;28;20468;-45
2022/09/01 06:29:39;;;;;;;14.63;12.50;;;22.90;58.80;;;;;;4998952;28;21165;-50
2022/09/01 06:32:08;;;;;;;9.00;8.23;;;23.00;59.20;;;;;;4997929;28;20879;-49
2022/09/01 06:34:34;;;;;;;10.70;9.60;;;23.10;59.00;;;;;;5008237;28;20448;-49
2022/09/01 06:37:00;;;;;;;12.63;11.43;;;23.20;58.80;;;;;;5010936;28;20490;-47
2022/09/01 06:39:26;;;;;;;12.90;11.77;;;23.30;59.00;;;;;;5008595;28;20440;-48
2022/09/01 06:41:51;;;;;;;10.53;9.40;;;23.40;58.80;;;;;;5010243;28;20360;-49
2022/09/01 06:44:23;;;;;;;13.50;11.50;;;23.50;58.10;;;;;;5009346;28;20194;-49
2022/09/01 06:46:52;;;;;;;11.80;10.70;;;23.60;58.20;;;;;;5015296;28;20198;-45
2022/09/01 06:49:20;;;;;;;12.80;11.50;;;23.70;57.50;;;;;;5010408;28;20943;-48
2022/09/01 06:51:47;;;;;;;11.40;10.30;;;23.90;57.60;;;;;;5009058;28;21035;-47
2022/09/01 06:54:15;;;;;;;10.10;9.30;;;23.90;57.30;;;;;;5011265;28;20453;-47
2022/09/01 06:56:40;;;;;;;14.30;12.53;;;24.00;57.60;;;;;;5001346;28;20520;-47
2022/09/01 06:59:06;;;;;;;13.67;11.80;;;24.00;57.40;;;;;;5010640;28;20456;-47
2022/09/01 07:01:32;;;;;;;13.27;12.10;;;24.00;57.30;;;;;;5006519;28;20657;-47
2022/09/01 07:03:58;;;;;;;15.00;13.50;;;24.00;56.80;;;;;;5009663;28;20441;-49
2022/09/01 07:06:28;;;;;;;10.77;9.87;;;24.10;56.50;;;;;;5008760;28;21136;-48
2022/09/01 07:08:56;;;;;;;13.70;11.20;;;24.20;56.70;;;;;;5007046;28;20520;-48
2022/09/01 07:11:26;;;;;;;12.33;11.30;;;24.40;56.70;;;;;;5009028;28;20888;-45
2022/09/01 07:13:57;;;;;;;8.40;7.60;;;24.60;56.00;;;;;;5009805;28;20462;-46
2022/09/01 07:16:25;;;;;;;11.90;10.80;;;24.70;55.50;;;;;;5011907;28;20499;-48
2022/09/01 07:18:54;;;;;;;12.03;10.93;;;24.90;55.40;;;;;;5009743;28;20428;-49
2022/09/01 07:21:21;;;;;;;11.17;10.27;;;25.10;54.90;;;;;;4999505;28;20527;-47
2022/09/01 07:23:47;;;;;;;10.83;9.67;;;25.20;54.50;;;;;;5009577;28;20796;-49
2022/09/01 07:26:18;;;;;;;10.60;9.70;;;25.40;54.60;;;;;;5010030;28;20429;-49
2022/09/01 07:28:49;;;;;;;11.27;10.27;;;25.50;54.30;;;;;;5008464;28;20215;-48
2022/09/01 07:31:20;;;;;;;9.10;8.30;;;25.60;54.10;;;;;;5008105;28;20536;-44
2022/09/01 07:33:51;;;;;;;11.20;9.50;;;25.80;53.70;;;;;;5005470;28;20448;-47
2022/09/01 07:36:18;;;;;;;10.90;9.93;;;25.90;53.60;;;;;;5007639;28;20484;-46
2022/09/01 07:38:44;;;;;;;10.97;10.00;;;25.80;53.30;;;;;;5015553;28;20445;-49
2022/09/01 07:41:13;;;;;;;10.60;9.60;;;25.80;53.50;;;;;;5006886;28;20453;-47
2022/09/01 07:43:43;;;;;;;11.57;10.50;;;25.80;53.60;;;;;;5003815;28;20604;-46
2022/09/01 07:46:10;;;;;;;12.13;11.03;;;25.60;53.80;;;;;;5006394;28;20436;-48
2022/09/01 07:48:36;;;;;;;10.93;10.00;;;25.60;53.60;;;;;;5011496;28;20444;-45
2022/09/01 07:51:02;;;;;;;11.97;10.97;;;25.70;53.60;;;;;;5013111;28;20441;-49
2022/09/01 07:53:31;;;;;;;11.30;10.30;;;25.60;53.50;;;;;;5008791;28;20198;-44
2022/09/01 07:56:00;;;;;;;12.20;10.77;;;25.60;53.80;;;;;;5008198;28;20528;-47
2022/09/01 07:58:28;;;;;;;11.70;10.70;;;25.60;54.10;;;;;;5009669;28;20453;-49
2022/09/01 08:00:55;;;;;;;11.90;10.90;;;25.70;54.20;;;;;;5006749;28;20488;-46
2022/09/01 08:03:23;;;;;;;11.30;10.30;;;25.80;54.50;;;;;;5009148;28;20476;-49
2022/09/01 08:05:56;;;;;;;11.03;10.00;;;25.80;54.00;;;;;;5007215;28;20565;-45
2022/09/01 08:08:22;;;;;;;13.77;9.93;;;25.60;53.90;;;;;;5005630;28;20883;-46
2022/09/01 08:10:47;;;;;;;11.00;10.03;;;25.60;55.60;;;;;;5005865;28;20440;-44
2022/09/01 08:13:13;;;;;;;11.13;10.03;;;25.60;54.60;;;;;;5008489;28;20194;-45
2022/09/01 08:15:40;;;;;;;11.87;10.87;;;25.50;54.60;;;;;;5005100;28;20285;-45
2022/09/01 08:18:06;;;;;;;11.13;10.27;;;25.50;53.90;;;;;;5010491;28;20228;-44
2022/09/01 08:20:36;;;;;;;10.53;9.50;;;25.40;54.40;;;;;;5000891;28;21782;-45
2022/09/01 08:23:03;;;;;;;10.70;9.80;;;25.40;54.70;;;;;;5007322;28;20507;-45
2022/09/01 08:25:31;;;;;;;11.10;10.10;;;25.40;54.60;;;;;;5006320;28;20437;-46
2022/09/01 08:27:56;;;;;;;9.33;8.30;;;25.00;53.90;;;;;;5009001;28;20464;-45
2022/09/01 08:30:22;;;;;;;8.63;7.90;;;24.70;55.40;;;;;;5003258;28;20441;-45
2022/09/01 08:32:48;;;;;;;7.60;7.00;;;24.70;54.90;;;;;;5004991;28;20202;-45
2022/09/01 08:35:15;;;;;;;8.07;7.37;;;24.70;54.20;;;;;;5004340;28;20237;-45
2022/09/01 08:37:41;;;;;;;7.13;6.43;;;24.80;54.10;;;;;;5009537;28;20201;-47
2022/09/01 08:40:13;;;;;;;6.40;5.90;;;25.00;53.70;;;;;;5009721;28;20456;-48
2022/09/01 08:42:57;;;;;;;5.70;5.20;;;25.10;52.70;;;;;;5008849;28;20523;-45
2022/09/01 08:45:30;;;;;;;6.40;5.90;;;25.20;52.80;;;;;;5005113;28;20488;-48
2022/09/01 08:48:01;;;;;;;5.77;5.37;;;25.30;52.30;;;;;;5007772;28;20441;-45
2022/09/01 08:50:27;;;;;;;6.30;5.80;;;24.80;51.40;;;;;;5009144;28;20859;-44
2022/09/01 08:53:16;;;;;;;6.10;5.60;;;24.40;53.30;;;;;;5014916;28;20558;-48
2022/09/01 08:55:52;;;;;;;6.63;6.03;;;24.20;53.80;;;;;;5001611;28;20489;-46
2022/09/01 08:58:18;;;;;;;6.47;5.97;;;23.90;54.30;;;;;;5003361;28;20444;-48
2022/09/01 09:00:57;;;;;;;7.83;6.77;;;23.80;54.80;;;;;;5004091;28;20450;-48
2022/09/01 09:03:29;;;;;;;7.97;7.33;;;23.80;55.30;;;;;;5001269;28;20198;-45
2022/09/01 09:06:17;;;;;;;6.70;6.20;;;23.60;55.30;;;;;;5005384;28;20583;-52
2022/09/01 09:08:58;;;;;;;7.40;6.80;;;23.90;55.70;;;;;;4995156;28;20855;-50
2022/09/01 09:11:39;;;;;;;6.37;5.90;;;24.10;55.00;;;;;;5004957;28;20583;-49
2022/09/01 09:14:29;;;;;;;6.10;5.60;;;24.30;55.20;;;;;;5009038;28;20453;-45
2022/09/01 09:16:56;;;;;;;6.67;6.07;;;24.10;54.50;;;;;;5009718;28;20452;-45
2022/09/01 09:19:29;;;;;;;6.67;6.03;;;23.90;54.90;;;;;;5010833;28;20441;-48
2022/09/01 09:21:57;;;;;;;6.97;6.37;;;23.90;55.00;;;;;;5010381;28;20960;-48
2022/09/01 09:24:48;;;;;;;6.23;5.63;;;23.80;55.20;;;;;;5010678;28;20458;-45
2022/09/01 09:27:26;;;;;;;5.50;5.10;;;23.70;55.60;;;;;;5009726;28;20464;-48
2022/09/01 09:30:04;;;;;;;6.30;5.77;;;23.70;54.60;;;;;;5007683;28;20456;-46
2022/09/01 09:32:49;;;;;;;5.53;5.13;;;23.80;54.90;;;;;;5007974;28;20444;-46
2022/09/01 09:35:26;;;;;;;7.00;5.00;;;24.00;54.50;;;;;;5012861;28;20515;-47
2022/09/01 09:37:52;;;;;;;5.10;4.70;;;24.20;53.80;;;;;;5031803;28;20467;-49
2022/09/01 09:40:25;;;;;;;5.97;5.57;;;24.20;54.00;;;;;;5014494;28;20796;-46
2022/09/01 09:42:54;;;;;;;5.70;5.30;;;24.20;53.70;;;;;;5008149;28;20480;-46
2022/09/01 09:45:35;;;;;;;5.67;5.27;;;24.00;54.30;;;;;;5008950;28;20452;-46
2022/09/01 09:48:06;;;;;;;5.20;4.80;;;24.20;54.70;;;;;;5011176;28;20827;-47
2022/09/01 09:50:36;;;;;;;5.43;5.03;;;24.50;54.40;;;;;;5008911;28;20843;-46
2022/09/01 09:53:28;;;;;;;6.20;5.60;;;24.80;53.10;;;;;;5009125;28;20887;-46
2022/09/01 09:56:08;;;;;;;5.90;5.40;;;24.90;52.40;;;;;;5009230;28;20562;-47
2022/09/01 09:58:39;;;;;;;5.47;5.07;;;24.70;52.80;;;;;;5007926;28;20456;-46
2022/09/01 10:01:24;;;;;;;5.40;5.00;;;24.70;52.60;;;;;;5005614;28;20440;-48
2022/09/01 10:04:08;;;;;;;5.30;4.90;;;24.80;52.40;;;;;;5006071;28;20453;-46
2022/09/01 10:06:36;;;;;;;4.60;4.30;;;25.10;51.90;;;;;;4999319;28;20451;-46
2022/09/01 10:09:29;;;;;;;5.33;4.83;;;25.00;51.80;;;;;;5004066;28;21141;-46
2022/09/01 10:11:56;;;;;;;5.70;5.20;;;25.30;52.70;;;;;;4993100;28;20458;-47
2022/09/01 10:14:30;;;;;;;4.77;4.27;;;25.60;50.60;;;;;;5009094;28;20444;-45
2022/09/01 10:17:05;;;;;;;5.37;4.97;;;25.40;50.10;;;;;;5004371;28;20504;-45
2022/09/01 10:19:33;;;;;;;5.10;4.60;;;25.50;50.60;;;;;;5008622;28;20582;-47
2022/09/01 10:21:59;;;;;;;4.73;4.43;;;25.60;50.80;;;;;;5007985;28;21158;-47
2022/09/01 10:24:31;;;;;;;8.47;5.20;;;25.30;50.80;;;;;;5007813;28;20446;-49
2022/09/01 10:27:00;;;;;;;4.50;4.20;;;25.50;51.50;;;;;;5003563;28;20204;-46
2022/09/01 10:29:34;;;;;;;5.57;4.93;;;25.50;50.60;;;;;;5006084;28;20911;-45
2022/09/01 10:32:01;;;;;;;5.47;4.97;;;25.20;51.10;;;;;;5004673;28;20456;-45
2022/09/01 10:34:33;;;;;;;5.90;5.50;;;25.00;51.90;;;;;;5004161;28;20524;-46
2022/09/01 10:36:59;;;;;;;4.77;4.37;;;25.00;52.40;;;;;;5000208;28;20453;-45
2022/09/01 10:39:25;;;;;;;5.60;5.10;;;24.90;50.90;;;;;;5007293;28;20451;-44
2022/09/01 10:41:57;;;;;;;4.90;4.50;;;25.30;51.90;;;;;;4995953;28;20484;-47
2022/09/01 10:44:32;;;;;;;4.80;4.50;;;25.60;50.80;;;;;;5007229;28;20210;-46
2022/09/01 10:47:08;;;;;;;4.43;4.07;;;25.90;50.00;;;;;;4996056;28;20448;-45
2022/09/01 10:49:34;;;;;;;5.30;4.90;;;26.20;49.70;;;;;;5009628;28;20475;-45
2022/09/01 10:51:59;;;;;;;5.13;4.63;;;25.90;49.20;;;;;;5002349;28;21001;-45
2022/09/01 10:54:40;;;;;;;5.33;4.93;;;25.20;50.40;;;;;;5005552;28;20648;-48
2022/09/01 10:57:47;;;;;;;4.80;4.40;;;25.50;51.10;;;;;;5009138;28;20209;-46
2022/09/01 11:00:19;;;;;;;4.77;4.37;;;25.80;51.00;;;;;;4992393;28;20458;-47
2022/09/01 11:03:12;;;;;;;4.87;4.47;;;26.10;50.00;;;;;;5007781;28;20811;-45
2022/09/01 11:05:53;;;;;;;6.20;4.90;;;26.30;49.50;;;;;;4997640;28;20448;-45
2022/09/01 11:08:27;;;;;;;5.20;4.80;;;26.40;49.20;;;;;;5002932;28;20444;-45
2022/09/01 11:11:08;;;;;;;5.20;4.80;;;26.50;48.70;;;;;;5012715;28;20447;-45
2022/09/01 11:13:42;;;;;;;5.10;4.63;;;26.70;48.30;;;;;;5013081;28;20436;-45
2022/09/01 11:16:33;;;;;;;4.43;4.13;;;26.90;47.80;;;;;;5009220;28;20488;-46
2022/09/01 11:19:36;;;;;;;10.00;3.80;;;27.10;47.50;;;;;;5008980;28;20463;-45
2022/09/01 11:22:33;;;;;;;5.20;4.80;;;27.00;47.00;;;;;;5003186;28;20452;-47
2022/09/01 11:25:10;;;;;;;5.20;4.90;;;26.20;47.40;;;;;;5018496;28;20456;-45
2022/09/01 11:27:48;;;;;;;4.63;4.33;;;25.80;49.60;;;;;;5009804;28;20959;-45
2022/09/01 11:30:54;;;;;;;4.13;3.83;;;26.20;48.50;;;;;;5011724;28;20463;-47
2022/09/01 11:33:29;;;;;;;5.20;4.80;;;26.50;47.10;;;;;;5001647;28;20467;-45
2022/09/01 11:36:27;;;;;;;5.03;4.63;;;26.70;47.50;;;;;;5002628;28;20554;-45
2022/09/01 11:39:04;;;;;;;4.50;4.20;;;27.10;46.90;;;;;;4984931;28;20460;-47
2022/09/01 11:41:39;;;;;;;4.97;4.57;;;27.20;46.70;;;;;;5009346;28;20455;-45
2022/09/01 11:44:19;;;;;;;5.13;4.77;;;26.70;46.80;;;;;;5009263;28;20626;-46
2022/09/01 11:46:45;;;;;;;4.20;3.90;;;26.40;48.10;;;;;;5006922;28;20444;-46
2022/09/01 11:49:28;;;;;;;5.03;4.53;;;26.70;47.60;;;;;;5009212;28;20444;-49
2022/09/01 11:51:55;;;;;;;4.50;4.10;;;26.80;46.60;;;;;;4999060;28;20194;-50
2022/09/01 11:54:22;;;;;;;4.73;4.33;;;26.90;46.10;;;;;;5007081;28;20805;-49
2022/09/01 11:56:48;;;;;;;4.17;3.87;;;26.60;46.40;;;;;;5007413;28;20484;-46
2022/09/01 11:59:13;;;;;;;4.17;3.87;;;26.50;47.30;;;;;;4998254;28;20870;-50
2022/09/01 12:01:39;;;;;;;4.87;4.47;;;26.50;46.70;;;;;;5009546;28;20317;-50
2022/09/01 12:04:24;;;;;;;4.60;4.30;;;26.60;46.70;;;;;;5004115;28;20226;-49
2022/09/01 12:07:05;;;;;;;4.20;3.90;;;26.30;46.70;;;;;;5011845;28;20464;-51
2022/09/01 12:09:42;;;;;;;4.43;4.13;;;26.30;46.10;;;;;;5008985;28;20444;-48
2022/09/01 12:12:25;;;;;;;4.43;4.13;;;26.30;46.70;;;;;;5026231;28;20443;-48
2022/09/01 12:14:59;;;;;;;4.03;3.80;;;26.60;45.50;;;;;;5011534;28;20469;-48
2022/09/01 12:17:25;;;;;;;4.17;3.77;;;27.00;45.20;;;;;;5004020;28;20883;-48
2022/09/01 12:19:51;;;;;;;4.50;4.10;;;27.40;45.10;;;;;;5004959;28;20531;-48
2022/09/01 12:22:19;;;;;;;4.40;4.10;;;27.50;44.80;;;;;;5011885;28;20798;-47
2022/09/01 12:24:48;;;;;;;4.90;4.50;;;27.70;45.00;;;;;;5005397;28;20740;-48
2022/09/01 12:27:14;;;;;;;4.70;4.30;;;27.80;43.90;;;;;;5009635;28;20458;-49
2022/09/01 12:29:41;;;;;;;4.33;4.03;;;28.00;43.20;;;;;;5010440;28;20480;-47
2022/09/01 12:32:07;;;;;;;4.20;4.00;;;28.00;43.70;;;;;;5005805;28;20468;-47
2022/09/01 12:34:41;;;;;;;5.50;5.17;;;28.30;44.30;;;;;;5006913;28;20440;-47
2022/09/01 12:37:23;;;;;;;5.17;4.80;;;27.90;43.00;;;;;;4997961;28;20449;-51
2022/09/01 12:39:56;;;;;;;4.53;4.23;;;27.60;44.30;;;;;;5009010;28;20457;-49
2022/09/01 12:42:30;;;;;;;5.10;4.80;;;27.50;44.40;;;;;;5003431;28;20481;-48
2022/09/01 12:45:01;;;;;;;5.07;4.67;;;27.30;43.90;;;;;;5002717;28;20448;-51
2022/09/01 12:47:32;;;;;;;4.87;4.50;;;27.10;44.10;;;;;;5013008;28;21325;-46
2022/09/01 12:50:00;;;;;;;4.57;4.20;;;27.40;44.50;;;;;;5001469;28;20464;-49
2022/09/01 12:52:27;;;;;;;5.00;4.70;;;27.60;43.40;;;;;;4999932;28;20469;-47
2022/09/01 12:55:05;;;;;;;5.10;4.70;;;27.40;44.00;;;;;;5002986;28;20477;-46
2022/09/01 12:57:48;;;;;;;5.03;4.53;;;27.90;43.80;;;;;;5006372;28;20813;-46
2022/09/01 13:00:20;;;;;;;4.43;4.13;;;28.40;42.90;;;;;;5004232;28;20494;-47